Ana Sayfa
METAR-TAF:

METAR-TAF

Havaalanları :

Amman, Ürdün

Enlem: 31-59N, Boylam: 035-59E, yükseklik: 767 m

Güncel hava durumu gözlemi

Rapor saat 20:00 UTC de 1 saat ve 3 dakika önce yapıldı.
Rüzgar güneydan 4 kt
Sıcaklık 15°C
Nem 59%
Basınç 1023 hPa
Görüş mesafesi: 6000 m

METAR: OJAM 172000Z 17004KT 6000 NSC 15/07 Q1023 NOSIG

Saat: 23:03 (21:03 UTC)

Tahmin

Rapor saat 19:30 UTC de 1 saat ve 33 dakika önce yapıldı.
Ayın 17'si saat 18 UTC'den ayın 18'si saat 24 UTC'ye kadar geçerli Tahmin
Rüzgar güneydoğudan 6 kt
Görüş mesafesi: 6000 m
Geçici
ayın 17'si saat 22 UTC'den ayın 18'si saat 07 UTC'ye kadar
Görüş mesafesi: 5000 m
Pus
Olasılık 30%
ayın 18'si saat 01 UTC'den ayın 18'si saat 06 UTC'ye kadar
Görüş mesafesi: 2000 m
Pus

TAF: OJAM 171930Z 1718/1824 14006KT 6000 NSC TEMPO 1722/1807 5000 BR PROB30 1801/1806 2000 BR

4.000'den fazla havaalanı için hava durumu gözlemleri ve tahminleri (METAR ve TAF raporları).

Kullanılabilir istasyonlar harita üzerinde sarı ve kırmızı noktalarla gösterilir.

İstasyonun adını görmek için fareyi noktanın üzerinde gezdirin.

Sonrasında hava gözlem ve tahminlerini görmek için tıklayın.

Haritayı değiştirmek için: yaklaştırmak için siyah artı işaretli yeşil düğmeye ve uzaklaştırmak için de eksi işaretli düğmeye hızla tıklayın; bitişik haritalar için yeşil okları kullanın.


METAR-TAF: